Chapman Ranch, Texas
Current Conditions -  °F | °C
As of 11:56 PM on Friday 24 Oct 2014 (Local Time) from KNGP Reporting Station
Clear Clear  
Wind Chill: 70°   Ceiling: Unl
Heat Index: 70°   Visibility: 10mi
Dew Point: 63°   Wind: 6mph
Humidity: 78%   Direction: 140°SE
Pressure: 30.13"   Gusts: NA
Location:  27.59°N, 97.45°W
Report Text: KNGP 250456Z AUTO 14005KT 10SM CLR 21/17 A3013 RMK AO2 SLP202 T02110172
Loading
Personal Weather Stations






























Interactive Weather Map
Tropical Storm Tracking
New forecast layout! Learn more

10-Day Weather Forecast

Advertisements
Track Severe Weather on mobile